Time;durP1;ratioP1;P1;durP2;ratioP2;P2;SDS_P1;SDS_P2;PMS_P1;PMS_P2;Temp;Humidity;BMP_temperature;BMP_pressure;BME280_temperature;BME280_humidity;BME280_pressure;Samples;Min_cycle;Max_cycle;Signal;HPM_P1;HPM_P2
2021/10/11 00:01:45;;;;;;;17.77;2.58;;;;;;;11.23;85.07;102882.19;5092892;28;20075;-79
2021/10/11 00:04:10;;;;;;;11.98;2.17;;;;;;;11.21;84.44;102892.09;5092087;28;20032;-80
2021/10/11 00:06:36;;;;;;;8.57;2.22;;;;;;;11.20;84.27;102890.38;5092806;28;20043;-80
2021/10/11 00:09:01;;;;;;;12.60;2.20;;;;;;;11.22;83.62;102887.59;5092033;28;20030;-80
2021/10/11 00:11:26;;;;;;;15.48;2.20;;;;;;;11.21;84.57;102897.41;5092897;28;20038;-79
2021/10/11 00:13:52;;;;;;;15.70;2.83;;;;;;;11.17;84.91;102893.22;5092199;28;20056;-80
2021/10/11 00:16:17;;;;;;;22.40;2.47;;;;;;;11.10;85.13;102898.03;5074922;28;20094;-80
2021/10/11 00:18:43;;;;;;;17.38;2.35;;;;;;;10.99;85.24;102897.84;5092775;28;20028;-80
2021/10/11 00:21:11;;;;;;;12.88;2.10;;;;;;;10.91;84.62;102900.97;5091853;28;20036;-79
2021/10/11 00:23:36;;;;;;;13.40;1.88;;;;;;;10.82;85.99;102893.50;5092443;28;20056;-79
2021/10/11 00:26:02;;;;;;;17.52;2.55;;;;;;;10.74;84.36;102891.28;5094395;28;20357;-78
2021/10/11 00:28:27;;;;;;;16.67;2.38;;;;;;;10.68;84.52;102891.66;5096137;28;20397;-79
2021/10/11 00:30:52;;;;;;;12.45;2.50;;;;;;;10.57;84.69;102886.97;5095942;28;20036;-81
2021/10/11 00:33:18;;;;;;;14.20;2.25;;;;;;;10.45;83.70;102890.34;5096521;28;20524;-79
2021/10/11 00:35:43;;;;;;;10.85;2.22;;;;;;;10.37;84.24;102884.59;5096178;28;20120;-79
2021/10/11 00:38:08;;;;;;;16.85;2.80;;;;;;;10.26;84.26;102889.66;5095776;28;20036;-80
2021/10/11 00:40:34;;;;;;;6.75;1.85;;;;;;;10.15;85.16;102884.91;5096517;28;20028;-80
2021/10/11 00:42:59;;;;;;;14.20;1.88;;;;;;;10.04;84.73;102880.19;5095705;28;20029;-80
2021/10/11 00:45:25;;;;;;;13.82;2.17;;;;;;;9.94;85.78;102881.66;5096656;28;20422;-80
2021/10/11 00:47:50;;;;;;;16.73;3.00;;;;;;;9.82;86.16;102888.50;5096033;28;20059;-80
2021/10/11 00:50:16;;;;;;;16.40;2.22;;;;;;;9.76;86.09;102886.19;5095626;28;20068;-80
2021/10/11 00:52:41;;;;;;;14.35;2.45;;;;;;;9.69;87.00;102891.00;5096290;28;20093;-80
2021/10/11 00:55:07;;;;;;;8.18;1.67;;;;;;;9.62;86.96;102892.25;5095497;28;20085;-80
2021/10/11 00:57:33;;;;;;;23.45;2.58;;;;;;;9.60;86.15;102896.78;5096064;28;20067;-79
2021/10/11 00:59:58;;;;;;;9.15;2.40;;;;;;;9.61;86.34;102896.69;5095440;28;20097;-78
2021/10/11 01:02:23;;;;;;;13.80;2.05;;;;;;;9.64;85.93;102895.69;5096067;28;20028;-79
2021/10/11 01:04:49;;;;;;;10.38;1.80;;;;;;;9.69;84.84;102894.50;5095950;28;20035;-78
2021/10/11 01:07:15;;;;;;;10.07;1.75;;;;;;;9.73;84.79;102891.66;5094956;28;20032;-79
2021/10/11 01:09:40;;;;;;;10.82;1.90;;;;;;;9.76;84.56;102886.19;5095877;28;20024;-80
2021/10/11 01:12:05;;;;;;;10.18;1.73;;;;;;;9.74;84.59;102883.59;5076786;28;20040;-80
2021/10/11 01:14:31;;;;;;;16.25;2.05;;;;;;;9.75;83.84;102879.13;5095512;28;20040;-81
2021/10/11 01:16:56;;;;;;;13.90;2.20;;;;;;;9.76;84.14;102881.72;5096096;28;20039;-79
2021/10/11 01:19:22;;;;;;;18.02;2.40;;;;;;;9.75;84.04;102881.78;5095070;28;20033;-79
2021/10/11 01:21:47;;;;;;;8.38;1.67;;;;;;;9.66;83.86;102878.72;5095675;28;20395;-79
2021/10/11 01:24:12;;;;;;;13.38;2.40;;;;;;;9.57;84.33;102891.63;5094930;28;20083;-79
2021/10/11 01:26:40;;;;;;;10.23;1.92;;;;;;;9.46;85.14;102893.06;5095495;28;20051;-79
2021/10/11 01:29:09;;;;;;;11.63;2.20;;;;;;;9.37;85.40;102898.88;5094825;28;20024;-81
2021/10/11 01:31:34;;;;;;;12.50;1.98;;;;;;;9.32;85.01;102901.75;5095518;28;20038;-80
2021/10/11 01:34:00;;;;;;;9.45;1.85;;;;;;;9.26;85.44;102903.91;5095053;28;20032;-80
2021/10/11 01:36:27;;;;;;;10.30;2.10;;;;;;;9.23;84.91;102899.59;5094834;28;20384;-79
2021/10/11 01:38:58;;;;;;;14.32;2.33;;;;;;;9.16;84.76;102885.75;5094958;28;20392;-79
2021/10/11 01:41:24;;;;;;;;;;;;;;;9.13;86.02;102885.91;5094791;28;20063;-80
2021/10/11 01:43:50;;;;;;;9.32;1.70;;;;;;;9.09;85.46;102887.03;5095173;28;19953;-79
2021/10/11 01:46:16;;;;;;;15.38;2.65;;;;;;;9.07;85.11;102880.09;5094247;28;20476;-79
2021/10/11 01:48:41;;;;;;;11.18;2.10;;;;;;;9.02;85.09;102882.97;5094937;28;20024;-79
2021/10/11 01:51:07;;;;;;;12.38;2.28;;;;;;;8.98;85.95;102881.41;5094636;28;20117;-79
2021/10/11 01:53:32;;;;;;;11.32;1.95;;;;;;;8.94;86.28;102887.81;5095051;28;20032;-79
2021/10/11 01:55:57;;;;;;;9.20;1.50;;;;;;;8.90;86.22;102880.97;5095061;28;20119;-79
2021/10/11 01:58:23;;;;;;;12.30;2.20;;;;;;;8.90;85.96;102878.31;5094425;28;20044;-79
2021/10/11 02:00:49;;;;;;;14.13;2.25;;;;;;;8.88;86.13;102886.31;5094888;28;20032;-79
2021/10/11 02:03:14;;;;;;;11.73;1.85;;;;;;;8.90;86.27;102888.94;5094171;28;20127;-79
2021/10/11 02:05:39;;;;;;;11.05;2.00;;;;;;;8.88;86.32;102882.81;5094853;28;20078;-79
2021/10/11 02:08:05;;;;;;;15.20;2.67;;;;;;;8.85;86.22;102880.31;5094083;28;20032;-80
2021/10/11 02:10:30;;;;;;;16.45;2.17;;;;;;;8.85;86.22;102880.31;5076526;28;20101;-79
2021/10/11 02:12:58;;;;;;;18.80;2.22;;;;;;;8.89;85.26;102884.53;5094718;28;20039;-79
2021/10/11 02:15:23;;;;;;;11.65;1.83;;;;;;;8.91;84.95;102886.19;5093986;28;20073;-79
2021/10/11 02:17:48;;;;;;;11.43;1.83;;;;;;;8.91;84.96;102885.31;5094749;28;20031;-79
2021/10/11 02:20:14;;;;;;;13.30;1.98;;;;;;;8.85;85.56;102881.16;5094090;28;20153;-80
2021/10/11 02:22:39;;;;;;;16.35;2.35;;;;;;;8.77;85.91;102886.88;5093893;28;20384;-79
2021/10/11 02:25:05;;;;;;;10.65;1.95;;;;;;;8.72;85.49;102888.03;5094698;28;20456;-80
2021/10/11 02:27:31;;;;;;;11.57;1.67;;;;;;;8.67;85.86;102876.81;5094245;28;20028;-79
2021/10/11 02:29:56;;;;;;;15.80;2.17;;;;;;;8.54;86.40;102873.88;5094347;28;20039;-79
2021/10/11 02:32:23;;;;;;;7.43;1.55;;;;;;;8.41;87.81;102871.81;5093487;28;20032;-80
2021/10/11 02:34:49;;;;;;;14.95;1.90;;;;;;;8.23;88.43;102868.28;5094268;28;20040;-79
2021/10/11 02:37:14;;;;;;;17.73;1.80;;;;;;;8.07;89.75;102865.47;5093659;28;20028;-80
2021/10/11 02:39:39;;;;;;;10.30;1.85;;;;;;;7.97;90.09;102850.94;5075815;28;20040;-79
2021/10/11 02:42:05;;;;;;;11.50;1.85;;;;;;;7.86;90.03;102855.91;5094278;28;20456;-80
2021/10/11 02:44:30;;;;;;;15.38;1.95;;;;;;;7.74;90.33;102852.88;5093172;28;20028;-80
2021/10/11 02:46:55;;;;;;;6.38;1.75;;;;;;;7.63;90.42;102849.91;5093970;28;20118;-79
2021/10/11 02:49:21;;;;;;;10.65;1.92;;;;;;;7.52;90.91;102850.34;5074184;28;20120;-79
2021/10/11 02:51:46;;;;;;;10.88;1.75;;;;;;;7.43;91.78;102847.28;5094191;28;20064;-79
2021/10/11 02:54:16;;;;;;;10.30;1.88;;;;;;;7.36;92.90;102841.38;5093303;28;20078;-80
2021/10/11 02:56:42;;;;;;;7.30;1.63;;;;;;;7.27;93.12;102834.75;5093787;28;20487;-80
2021/10/11 02:59:07;;;;;;;12.05;2.03;;;;;;;7.20;93.64;102849.19;5093757;28;20028;-80
2021/10/11 03:01:32;;;;;;;8.93;1.98;;;;;;;7.17;94.84;102836.94;5093167;28;20032;-79
2021/10/11 03:03:58;;;;;;;10.10;2.38;;;;;;;7.16;95.32;102839.66;5093744;28;20046;-79
2021/10/11 03:06:23;;;;;;;9.63;1.70;;;;;;;7.20;95.45;102831.50;5092944;28;20028;-79
2021/10/11 03:08:48;;;;;;;7.85;1.63;;;;;;;7.32;96.07;102843.34;5093594;28;20067;-79
2021/10/11 03:11:14;;;;;;;9.00;1.80;;;;;;;7.45;96.27;102834.81;5093056;28;20039;-79
2021/10/11 03:13:39;;;;;;;10.35;2.10;;;;;;;7.59;96.73;102835.06;5075737;28;20035;-79
2021/10/11 03:16:04;;;;;;;12.27;1.75;;;;;;;7.73;96.91;102845.88;5093697;28;20449;-79
2021/10/11 03:18:30;;;;;;;10.20;1.90;;;;;;;7.85;97.02;102843.56;5092969;28;20067;-79
2021/10/11 03:20:55;;;;;;;12.48;2.22;;;;;;;7.97;97.07;102840.34;5093121;28;20437;-79
2021/10/11 03:23:20;;;;;;;14.23;1.90;;;;;;;8.06;96.97;102834.63;5092639;28;20076;-79
2021/10/11 03:25:46;;;;;;;8.48;1.90;;;;;;;8.15;96.75;102832.44;5093528;28;20059;-79
2021/10/11 03:28:11;;;;;;;12.98;2.42;;;;;;;8.21;96.73;102838.31;5074972;28;20035;-79
2021/10/11 03:30:37;;;;;;;10.32;2.13;;;;;;;8.25;96.47;102833.72;5092434;28;20030;-80
2021/10/11 03:33:03;;;;;;;10.77;2.60;;;;;;;8.28;96.03;102834.44;5093288;28;20035;-79
2021/10/11 03:35:28;;;;;;;12.57;2.10;;;;;;;8.28;95.67;102826.47;5092370;28;20119;-80
2021/10/11 03:37:54;;;;;;;6.22;1.90;;;;;;;8.26;95.18;102827.47;5093445;28;20380;-79
2021/10/11 03:40:19;;;;;;;9.15;2.03;;;;;;;8.26;95.32;102841.59;5092742;28;20470;-80
2021/10/11 03:42:45;;;;;;;11.63;2.08;;;;;;;8.27;95.91;102838.03;5093045;28;20028;-80
2021/10/11 03:45:11;;;;;;;12.38;2.08;;;;;;;8.31;96.00;102830.75;5093053;28;20085;-79
2021/10/11 03:47:38;;;;;;;11.73;2.20;;;;;;;8.36;96.29;102828.75;5074202;28;20080;-79
2021/10/11 03:50:04;;;;;;;12.50;2.63;;;;;;;8.42;96.58;102820.50;5093106;28;20036;-79
2021/10/11 03:52:30;;;;;;;12.73;2.50;;;;;;;8.49;96.45;102826.34;5092721;28;20088;-79
2021/10/11 03:54:57;;;;;;;6.85;2.05;;;;;;;8.58;96.55;102827.69;5093103;28;20115;-79
2021/10/11 03:57:22;;;;;;;7.90;1.95;;;;;;;8.67;96.18;102829.88;5092603;28;20043;-79
2021/10/11 03:59:47;;;;;;;15.35;2.05;;;;;;;8.76;95.86;102823.25;5092548;28;20040;-79
2021/10/11 04:02:13;;;;;;;12.50;2.22;;;;;;;8.81;95.81;102823.88;5093042;28;20041;-79
2021/10/11 04:04:38;;;;;;;13.68;2.17;;;;;;;8.87;96.08;102826.22;5092101;28;20043;-79
2021/10/11 04:07:10;;;;;;;24.13;3.10;;;;;;;8.91;96.16;102819.81;5092935;28;20032;-79
2021/10/11 04:09:36;;;;;;;12.43;2.15;;;;;;;8.94;96.62;102822.31;5092122;28;20028;-79
2021/10/11 04:12:17;;;;;;;16.98;2.40;;;;;;;8.97;96.83;102819.50;5092591;28;20035;-79
2021/10/11 04:14:42;;;;;;;13.32;2.45;;;;;;;8.98;96.84;102820.34;5092120;28;20032;-79
2021/10/11 04:17:08;;;;;;;13.77;2.35;;;;;;;8.99;97.01;102824.72;5092334;28;20042;-79
2021/10/11 04:19:33;;;;;;;8.30;2.03;;;;;;;9.00;96.85;102831.72;5092021;28;20032;-79
2021/10/11 04:21:58;;;;;;;13.68;2.30;;;;;;;9.00;97.07;102829.97;5092500;28;20400;-79
2021/10/11 04:24:24;;;;;;;15.13;2.50;;;;;;;9.04;97.46;102833.28;5092018;28;20060;-80
2021/10/11 04:26:49;;;;;;;10.18;2.17;;;;;;;9.07;97.61;102835.78;5074458;28;20438;-79
2021/10/11 04:29:15;;;;;;;16.45;2.80;;;;;;;9.10;97.64;102832.97;5074504;28;20032;-79
2021/10/11 04:31:40;;;;;;;9.00;2.08;;;;;;;9.14;97.83;102831.88;5073758;28;20426;-79
2021/10/11 04:34:05;;;;;;;16.65;2.40;;;;;;;9.24;97.80;102826.06;5092413;28;20047;-79
2021/10/11 04:36:31;;;;;;;19.92;2.25;;;;;;;9.33;97.32;102822.91;5091879;28;20440;-79
2021/10/11 04:38:56;;;;;;;19.90;2.85;;;;;;;9.39;96.58;102811.97;5092150;28;20036;-80
2021/10/11 04:41:21;;;;;;;10.70;2.03;;;;;;;9.46;96.39;102815.16;5091772;28;20031;-80
2021/10/11 04:43:47;;;;;;;19.35;2.17;;;;;;;9.50;95.87;102819.38;5074394;28;20055;-80
2021/10/11 04:46:12;;;;;;;12.73;2.78;;;;;;;9.53;95.62;102816.53;5092346;28;20035;-80
2021/10/11 04:48:37;;;;;;;10.15;2.40;;;;;;;9.56;95.70;102818.19;5073324;28;20051;-80
2021/10/11 04:51:03;;;;;;;12.07;2.40;;;;;;;9.57;95.79;102811.91;5092209;28;20376;-80
2021/10/11 04:53:28;;;;;;;10.23;2.10;;;;;;;9.58;95.93;102816.28;5091329;28;20036;-80
2021/10/11 04:55:54;;;;;;;14.63;2.53;;;;;;;9.62;96.00;102817.84;5091895;28;20036;-81
2021/10/11 04:58:19;;;;;;;16.17;2.10;;;;;;;9.62;96.00;102818.69;5091910;28;20032;-80
2021/10/11 05:00:44;;;;;;;10.57;2.10;;;;;;;9.64;96.19;102815.94;5091642;28;20524;-80
2021/10/11 05:03:10;;;;;;;14.60;2.42;;;;;;;9.69;95.58;102828.03;5092157;28;20059;-80
2021/10/11 05:05:35;;;;;;;14.27;2.00;;;;;;;9.75;95.54;102825.97;5091390;28;20032;-80
2021/10/11 05:08:01;;;;;;;16.33;2.35;;;;;;;9.79;95.18;102820.44;5092094;28;20036;-80
2021/10/11 05:10:27;;;;;;;18.92;2.58;;;;;;;9.82;94.28;102822.91;5073726;28;20028;-81
2021/10/11 05:12:52;;;;;;;9.57;2.10;;;;;;;9.86;93.18;102823.59;5094030;28;20392;-80
2021/10/11 05:15:18;;;;;;;13.65;2.80;;;;;;;9.88;92.60;102827.00;5095766;28;20492;-80
2021/10/11 05:17:43;;;;;;;14.52;2.42;;;;;;;9.87;91.45;102822.66;5095121;28;20434;-80
2021/10/11 05:20:10;;;;;;;17.00;3.00;;;;;;;9.86;91.29;102820.94;5095614;28;20070;-80
2021/10/11 05:22:35;;;;;;;16.05;2.40;;;;;;;9.75;91.75;102826.84;5094524;28;20115;-79
2021/10/11 05:25:01;;;;;;;11.80;2.00;;;;;;;9.65;91.56;102825.63;5095846;28;20115;-80
2021/10/11 05:27:26;;;;;;;10.68;2.20;;;;;;;9.61;90.74;102821.44;5094889;28;20050;-81
2021/10/11 05:29:51;;;;;;;12.45;2.13;;;;;;;9.56;90.54;102820.84;5095477;28;20039;-79
2021/10/11 05:32:17;;;;;;;12.10;2.25;;;;;;;9.46;90.56;102823.97;5095502;28;20480;-79
2021/10/11 05:34:43;;;;;;;9.70;2.15;;;;;;;9.33;90.25;102826.44;5094446;28;20036;-79
2021/10/11 05:37:08;;;;;;;12.73;1.92;;;;;;;9.20;90.62;102819.22;5095308;28;20040;-79
2021/10/11 05:39:33;;;;;;;7.10;1.85;;;;;;;9.02;90.91;102819.25;5094385;28;20056;-80
2021/10/11 05:41:59;;;;;;;13.18;1.98;;;;;;;8.88;91.64;102829.72;5095361;28;20031;-80
2021/10/11 05:44:24;;;;;;;7.10;1.67;;;;;;;8.75;92.26;102826.84;5095296;28;20067;-80
2021/10/11 05:46:50;;;;;;;7.68;1.70;;;;;;;8.65;93.06;102835.25;5094364;28;20030;-80
2021/10/11 05:49:17;;;;;;;15.85;2.33;;;;;;;8.61;93.81;102831.06;5094820;28;20447;-78
2021/10/11 05:51:42;;;;;;;11.70;1.98;;;;;;;8.65;93.52;102835.25;5094651;28;20074;-78
2021/10/11 05:54:08;;;;;;;11.60;2.13;;;;;;;8.69;93.03;102827.16;5095548;28;20130;-81
2021/10/11 05:56:33;;;;;;;11.60;2.00;;;;;;;8.68;93.10;102836.91;5095326;28;20495;-80
2021/10/11 05:58:59;;;;;;;9.40;1.63;;;;;;;8.61;93.04;102831.06;5095506;28;20456;-80
2021/10/11 06:01:24;;;;;;;12.07;1.95;;;;;;;8.55;93.38;102836.66;5094782;28;20482;-80
2021/10/11 06:03:49;;;;;;;10.43;1.98;;;;;;;8.48;93.39;102840.59;5094394;28;20273;-80
2021/10/11 06:06:15;;;;;;;7.35;1.50;;;;;;;8.42;93.41;102843.47;5094733;28;20032;-80
2021/10/11 06:08:40;;;;;;;13.35;2.13;;;;;;;8.34;93.36;102846.53;5094047;28;20397;-80
2021/10/11 06:11:05;;;;;;;10.90;2.05;;;;;;;8.29;93.84;102837.94;5094597;28;20081;-80
2021/10/11 06:13:31;;;;;;;10.60;1.98;;;;;;;8.24;94.07;102839.94;5094792;28;20028;-80
2021/10/11 06:15:56;;;;;;;7.85;1.88;;;;;;;8.20;94.34;102849.84;5094056;28;20379;-80
2021/10/11 06:18:22;;;;;;;10.85;1.85;;;;;;;8.20;94.84;102843.69;5094641;28;20032;-79
2021/10/11 06:20:47;;;;;;;10.23;1.85;;;;;;;8.24;95.32;102846.13;5071221;28;20036;-78
2021/10/11 06:23:13;;;;;;;9.68;2.08;;;;;;;8.27;95.45;102840.66;5091180;28;20048;-78
2021/10/11 06:25:40;;;;;;;9.40;1.80;;;;;;;8.29;95.56;102845.91;5091058;28;20071;-78
2021/10/11 06:28:05;;;;;;;12.65;1.98;;;;;;;8.34;96.07;102854.47;5091864;28;20456;-78
2021/10/11 06:30:30;;;;;;;9.68;2.17;;;;;;;8.38;96.07;102848.09;5091323;28;20095;-77
2021/10/11 06:32:56;;;;;;;10.48;2.40;;;;;;;8.44;96.22;102846.97;5090463;28;20460;-78
2021/10/11 06:35:21;;;;;;;8.38;1.75;;;;;;;8.54;96.33;102855.31;5091459;28;20531;-79
2021/10/11 06:37:47;;;;;;;13.02;2.22;;;;;;;8.62;96.54;102858.47;5090779;28;20492;-77
2021/10/11 06:40:12;;;;;;;11.70;2.20;;;;;;;8.74;96.23;102857.84;5091243;28;20060;-79
2021/10/11 06:42:38;;;;;;;16.00;2.85;;;;;;;8.91;95.61;102861.41;5090448;28;20918;-78
2021/10/11 06:45:03;;;;;;;13.82;2.10;;;;;;;9.06;94.83;102860.66;5091074;28;20484;-78
2021/10/11 06:47:29;;;;;;;14.00;2.03;;;;;;;9.17;94.62;102858.28;5091423;28;20036;-79
2021/10/11 06:49:54;;;;;;;7.93;1.65;;;;;;;9.29;94.45;102863.88;5090567;28;20035;-79
2021/10/11 06:52:19;;;;;;;13.10;1.90;;;;;;;9.42;93.75;102869.38;5091345;28;20040;-78
2021/10/11 06:54:45;;;;;;;15.27;2.72;;;;;;;9.57;93.18;102871.25;5072169;28;20078;-79
2021/10/11 06:57:11;;;;;;;16.08;2.10;;;;;;;9.70;92.54;102869.63;5091179;28;20471;-79
2021/10/11 06:59:38;;;;;;;10.07;1.88;;;;;;;9.84;91.74;102871.53;5091172;28;20472;-78
2021/10/11 07:02:04;;;;;;;13.90;2.60;;;;;;;9.97;90.95;102874.38;5090867;28;20036;-79
2021/10/11 07:04:30;;;;;;;14.23;2.42;;;;;;;10.07;90.24;102875.56;5091066;28;20464;-80
2021/10/11 07:06:55;;;;;;;10.60;2.35;;;;;;;10.16;89.47;102870.69;5090306;28;20082;-81
2021/10/11 07:09:20;;;;;;;16.48;2.22;;;;;;;10.26;88.76;102876.34;5090288;28;20080;-81
2021/10/11 07:11:50;;;;;;;14.48;2.75;;;;;;;10.36;88.25;102880.19;5090177;28;20103;-80
2021/10/11 07:14:15;;;;;;;12.65;2.47;;;;;;;10.43;88.28;102888.72;5090776;28;20174;-81
2021/10/11 07:16:41;;;;;;;15.30;2.03;;;;;;;10.49;86.75;102883.88;5090238;28;20146;-81
2021/10/11 07:19:06;;;;;;;15.95;2.10;;;;;;;10.56;86.82;102879.91;5090073;28;20028;-78
2021/10/11 07:21:31;;;;;;;15.57;1.90;;;;;;;10.62;84.91;102892.00;5090821;28;20589;-77
2021/10/11 07:23:57;;;;;;;10.80;2.03;;;;;;;10.65;85.17;102894.50;5086361;28;20490;-80
2021/10/11 07:26:22;;;;;;;10.00;2.17;;;;;;;10.69;84.97;102893.38;5092165;28;20498;-79
2021/10/11 07:28:48;;;;;;;7.25;1.90;;;;;;;10.74;84.59;102895.78;5091762;28;20032;-80
2021/10/11 07:31:13;;;;;;;11.65;2.17;;;;;;;10.81;84.35;102894.47;5093069;28;20036;-80
2021/10/11 07:33:38;;;;;;;6.38;1.73;;;;;;;10.84;84.99;102896.94;5092892;28;20388;-80
2021/10/11 07:36:04;;;;;;;11.07;2.10;;;;;;;10.91;84.70;102905.41;5092002;28;20119;-80
2021/10/11 07:38:30;;;;;;;11.20;2.00;;;;;;;11.02;83.86;102910.13;5093122;28;20395;-79
2021/10/11 07:40:57;;;;;;;14.13;2.63;;;;;;;11.12;83.75;102903.28;5092319;28;20032;-79
2021/10/11 07:43:23;;;;;;;14.77;2.15;;;;;;;11.26;83.84;102907.78;5092962;28;20047;-79
2021/10/11 07:45:48;;;;;;;15.90;2.13;;;;;;;11.37;82.54;102905.31;5092091;28;20464;-80
2021/10/11 07:48:15;;;;;;;9.82;1.80;;;;;;;11.49;83.19;102910.84;5074621;28;20077;-79
2021/10/11 07:50:41;;;;;;;7.03;1.80;;;;;;;11.55;81.79;102913.13;5092957;28;20082;-79
2021/10/11 07:53:06;;;;;;;12.52;2.08;;;;;;;11.65;81.10;102915.13;5092890;28;20064;-77
2021/10/11 07:55:32;;;;;;;14.30;2.25;;;;;;;11.76;80.99;102918.94;5092970;28;20071;-79
2021/10/11 07:57:57;;;;;;;11.07;1.70;;;;;;;11.82;80.85;102923.88;5091968;28;20110;-80
2021/10/11 08:00:24;;;;;;;15.23;2.28;;;;;;;11.93;79.90;102918.78;5092680;28;20032;-79
2021/10/11 08:02:50;;;;;;;16.17;1.95;;;;;;;11.99;79.80;102929.06;5092139;28;20053;-83
2021/10/11 08:05:16;;;;;;;7.65;2.00;;;;;;;12.08;79.71;102921.44;5092597;28;20060;-79
2021/10/11 08:07:44;;;;;;;10.80;2.13;;;;;;;12.21;79.90;102924.16;5092838;28;20028;-78
2021/10/11 08:10:11;;;;;;;14.25;1.77;;;;;;;12.31;78.76;102914.59;5092616;28;20478;-80
2021/10/11 08:12:38;;;;;;;13.52;1.98;;;;;;;12.45;78.26;102921.69;5092642;28;20054;-78
2021/10/11 08:15:04;;;;;;;13.98;2.00;;;;;;;12.62;78.37;102909.91;5091895;28;20376;-79
2021/10/11 08:17:30;;;;;;;7.18;1.75;;;;;;;12.78;77.14;102923.97;5092472;28;20028;-79
2021/10/11 08:19:56;;;;;;;11.18;2.33;;;;;;;13.05;76.09;102921.22;5091763;28;20055;-78
2021/10/11 08:22:21;;;;;;;13.82;2.20;;;;;;;13.21;75.41;102926.38;5092444;28;20380;-79
2021/10/11 08:24:49;;;;;;;13.32;2.10;;;;;;;13.26;73.66;102925.22;5073678;28;20048;-81
2021/10/11 08:27:18;;;;;;;9.13;1.98;;;;;;;13.23;74.60;102926.28;5092213;28;20032;-76
2021/10/11 08:29:51;;;;;;;9.35;1.70;;;;;;;13.18;73.45;102925.72;5074047;28;20115;-76
2021/10/11 08:32:21;;;;;;;13.18;2.60;;;;;;;13.37;73.29;102930.69;5074592;28;20032;-77
2021/10/11 08:34:47;;;;;;;12.05;2.15;;;;;;;13.87;71.40;102922.75;5092487;28;20039;-80
2021/10/11 08:37:13;;;;;;;10.70;2.20;;;;;;;14.56;69.08;102927.56;5092472;28;20043;-77
2021/10/11 08:39:39;;;;;;;12.18;2.10;;;;;;;15.40;65.25;102925.63;5092120;28;20062;-77
2021/10/11 08:42:05;;;;;;;11.30;2.05;;;;;;;16.51;61.60;102921.25;5091803;28;20032;-79
2021/10/11 08:44:31;;;;;;;14.05;1.95;;;;;;;17.66;58.06;102926.75;5092618;28;20030;-79
2021/10/11 08:46:56;;;;;;;9.98;1.83;;;;;;;19.09;54.59;102934.47;5092487;28;20114;-79
2021/10/11 08:49:22;;;;;;;11.82;2.55;;;;;;;20.07;50.90;102931.47;5096075;28;20051;-79
2021/10/11 08:51:48;;;;;;;10.90;2.42;;;;;;;19.78;51.61;102920.78;5095884;28;20038;-79
2021/10/11 08:54:13;;;;;;;11.20;2.40;;;;;;;18.32;55.13;102917.31;5095875;28;20028;-79
2021/10/11 08:56:38;;;;;;;14.05;2.00;;;;;;;17.02;58.37;102917.06;5096234;28;20055;-79
2021/10/11 08:59:04;;;;;;;14.07;2.45;;;;;;;16.20;60.70;102921.97;5095207;28;20036;-79
2021/10/11 09:01:29;;;;;;;8.30;2.00;;;;;;;15.55;61.90;102930.78;5078218;28;20472;-78
2021/10/11 09:03:55;;;;;;;9.07;2.00;;;;;;;15.30;64.00;102933.56;5095228;28;20028;-78
2021/10/11 09:06:20;;;;;;;7.32;1.88;;;;;;;16.13;62.28;102939.56;5095991;28;20422;-78
2021/10/11 09:08:45;;;;;;;7.85;1.90;;;;;;;17.42;58.27;102935.97;5095861;28;20525;-78
2021/10/11 09:11:13;;;;;;;8.43;1.95;;;;;;;18.14;55.08;102934.16;5095241;28;20444;-78
2021/10/11 09:13:40;;;;;;;9.70;2.08;;;;;;;17.32;57.43;102942.31;5095839;28;20028;-79
2021/10/11 09:16:34;;;;;;;6.72;1.85;;;;;;;16.11;59.97;102951.41;5095227;28;20456;-79
2021/10/11 09:19:15;;;;;;;6.93;1.90;;;;;;;15.49;61.81;102945.53;5095336;28;20032;-78
2021/10/11 09:21:40;;;;;;;7.65;1.50;;;;;;;15.12;62.45;102943.88;5096487;28;20039;-79
2021/10/11 09:24:09;;;;;;;8.45;1.77;;;;;;;14.98;63.82;102949.44;5095215;28;20472;-78
2021/10/11 09:26:45;;;;;;;7.85;1.63;;;;;;;14.86;62.51;102959.25;5095544;28;20036;-80
2021/10/11 09:29:11;;;;;;;10.05;1.80;;;;;;;14.67;63.05;102957.09;5094965;28;20063;-79
2021/10/11 09:31:40;;;;;;;8.95;1.55;;;;;;;14.40;63.63;102943.91;5095514;28;20464;-79
2021/10/11 09:34:06;;;;;;;7.28;1.75;;;;;;;14.21;63.95;102937.22;5076755;28;20028;-78
2021/10/11 09:36:31;;;;;;;7.65;1.40;;;;;;;14.17;65.42;102945.59;5095370;28;20040;-79
2021/10/11 09:39:00;;;;;;;10.68;1.88;;;;;;;14.21;65.79;102939.91;5094784;28;20089;-80
2021/10/11 09:41:26;;;;;;;6.55;1.38;;;;;;;14.41;67.06;102948.31;5094891;28;20089;-79
2021/10/11 09:43:52;;;;;;;8.07;1.70;;;;;;;14.72;66.22;102956.75;5095368;28;20036;-79
2021/10/11 09:46:19;;;;;;;8.63;1.75;;;;;;;15.15;65.03;102956.19;5094608;28;20467;-78
2021/10/11 09:48:56;;;;;;;11.45;2.35;;;;;;;15.39;65.85;102964.19;5095063;28;20032;-78
2021/10/11 09:51:22;;;;;;;8.82;2.13;;;;;;;14.90;67.29;102965.22;5094360;28;20502;-78
2021/10/11 09:53:50;;;;;;;10.77;2.00;;;;;;;14.36;69.48;102974.53;5095171;28;20036;-77
2021/10/11 09:56:15;;;;;;;9.77;1.60;;;;;;;13.77;74.35;102970.72;5094530;28;20036;-76
2021/10/11 09:58:41;;;;;;;9.98;1.77;;;;;;;13.31;77.46;102966.69;5094906;28;20035;-77
2021/10/11 10:01:07;;;;;;;8.75;1.63;;;;;;;13.04;80.52;102961.41;5094471;28;20036;-77
2021/10/11 10:03:34;;;;;;;6.95;1.73;;;;;;;12.92;80.88;102967.59;5094953;28;20117;-77
2021/10/11 10:06:01;;;;;;;8.23;1.50;;;;;;;12.90;78.93;102958.81;5094336;28;20036;-80
2021/10/11 10:08:29;;;;;;;7.45;1.70;;;;;;;13.01;78.00;102949.13;5094681;28;20106;-77
2021/10/11 10:10:58;;;;;;;11.70;2.13;;;;;;;13.28;78.63;102948.19;5094809;28;20035;-77
2021/10/11 10:13:25;;;;;;;13.13;2.10;;;;;;;13.83;77.21;102942.66;5093804;28;20439;-76
2021/10/11 10:15:51;;;;;;;12.82;1.90;;;;;;;14.80;74.82;102949.84;5094503;28;20035;-76
2021/10/11 10:18:19;;;;;;;11.68;1.98;;;;;;;15.92;69.07;102944.00;5093979;28;20089;-77
2021/10/11 10:20:57;;;;;;;7.18;1.80;;;;;;;16.49;66.05;102942.03;5094516;28;20064;-77
2021/10/11 10:23:23;;;;;;;8.10;2.28;;;;;;;17.06;65.90;102931.91;5093589;28;20050;-77
2021/10/11 10:25:48;;;;;;;10.60;2.40;;;;;;;17.00;64.87;102935.13;5094230;28;20036;-77
2021/10/11 10:28:14;;;;;;;12.68;1.95;;;;;;;16.66;64.09;102940.63;5093570;28;20051;-77
2021/10/11 10:30:40;;;;;;;9.73;1.67;;;;;;;16.34;64.36;102946.84;5094107;28;20528;-78
2021/10/11 10:33:08;;;;;;;10.88;1.85;;;;;;;16.19;65.19;102949.78;5093751;28;20070;-78
2021/10/11 10:35:45;;;;;;;6.97;1.55;;;;;;;16.12;61.80;102953.09;5094625;28;20042;-76
2021/10/11 10:38:17;;;;;;;7.00;1.80;;;;;;;16.22;63.49;102946.84;5093754;28;20031;-77
2021/10/11 10:40:43;;;;;;;12.52;1.60;;;;;;;16.11;65.41;102941.53;5094222;28;20024;-77
2021/10/11 10:43:12;;;;;;;11.20;1.88;;;;;;;15.98;65.00;102946.19;5093670;28;20097;-78
2021/10/11 10:45:39;;;;;;;9.13;1.55;;;;;;;15.93;64.09;102949.25;5094154;28;20028;-79
2021/10/11 10:48:25;;;;;;;11.65;2.17;;;;;;;15.86;64.60;102945.34;5093662;28;20085;-83
2021/10/11 10:50:55;;;;;;;9.02;2.30;;;;;;;15.80;65.03;102951.19;5093963;28;20028;-77
2021/10/11 10:53:22;;;;;;;7.65;1.50;;;;;;;15.75;64.51;102939.91;5093378;28;20388;-79
2021/10/11 10:55:49;;;;;;;13.35;2.33;;;;;;;15.52;64.31;102943.47;5094092;28;20035;-78
2021/10/11 10:58:16;;;;;;;9.38;1.70;;;;;;;15.40;64.24;102935.53;5093208;28;20040;-77
2021/10/11 11:00:43;;;;;;;6.75;1.50;;;;;;;15.50;65.41;102941.88;5093797;28;20055;-78
2021/10/11 11:03:11;;;;;;;5.47;1.60;;;;;;;15.66;65.14;102942.38;5093126;28;20082;-79
2021/10/11 11:05:37;;;;;;;6.68;1.73;;;;;;;15.93;65.07;102941.19;5075576;28;20473;-78
2021/10/11 11:08:02;;;;;;;11.90;2.10;;;;;;;16.07;61.91;102939.22;5093442;28;20464;-77
2021/10/11 11:10:35;;;;;;;10.38;1.85;;;;;;;16.20;61.88;102939.94;5092253;28;20062;-77
2021/10/11 11:13:14;;;;;;;6.93;1.70;;;;;;;16.15;61.85;102937.63;5093463;28;20066;-78
2021/10/11 11:15:41;;;;;;;6.07;1.80;;;;;;;16.10;62.72;102934.44;5093492;28;20085;-78
2021/10/11 11:18:13;;;;;;;11.52;2.30;;;;;;;15.99;61.56;102943.38;5093486;28;20036;-78
2021/10/11 11:20:40;;;;;;;12.35;2.15;;;;;;;15.93;61.74;102935.81;5093147;28;20035;-78